Sultan Azlan Shah Airport Ipoh MY
ICAO: WMKI
IATA:
Category: Medium
Scheduled Services:

Elevation: 130 ft
TransAlt. 11000 ft.

Airport Communications:
IPOH TWR:122.1

WMKI Zoom In..

Runways:

(A) RW 04 length 6562 ft width 148 ft
ILS 110.50 / hdg 41

(B) RW 22 length 6562 ft width 148 ft
---- / hdg 221

Location; WMKI
Day. 06 / Time. 23.00 Zulu
* QNH: 1009
* Temperature: 25° c. 77°f.
* Wind from: VRB° Speed 02 kn.
Dewpoint: 23° c.
Visibility: 9000 m.
Clouds: Few 2900 ft.

WMKI 062300Z VRB02KT 9000 FEW029 25/23 Q1009


Wind From VRB°
Speed 02 kn.

 
 
jpsmedia worldairports.se 2020   terms of use